sensor_id;sensor_type;location;lat;lon;timestamp;P1;durP1;ratioP1;P2;durP2;ratioP2
26920;SDS011;14483;47.844;9.660;2023-08-31T00:00:24;3.17;;;2.22;;
26920;SDS011;14483;47.844;9.660;2023-08-31T00:02:51;3.42;;;1.98;;
26920;SDS011;14483;47.844;9.660;2023-08-31T00:05:18;3.55;;;2.33;;
26920;SDS011;14483;47.844;9.660;2023-08-31T00:07:44;4.45;;;2.50;;
26920;SDS011;14483;47.844;9.660;2023-08-31T00:10:11;3.97;;;2.75;;
26920;SDS011;14483;47.844;9.660;2023-08-31T00:12:37;3.28;;;2.72;;
26920;SDS011;14483;47.844;9.660;2023-08-31T00:15:06;4.95;;;2.55;;
26920;SDS011;14483;47.844;9.660;2023-08-31T00:17:34;3.30;;;2.08;;
26920;SDS011;14483;47.844;9.660;2023-08-31T00:20:00;4.25;;;2.58;;
26920;SDS011;14483;47.844;9.660;2023-08-31T00:22:27;3.83;;;3.00;;
26920;SDS011;14483;47.844;9.660;2023-08-31T00:24:53;4.65;;;2.60;;
26920;SDS011;14483;47.844;9.660;2023-08-31T00:27:20;8.20;;;3.10;;
26920;SDS011;14483;47.844;9.660;2023-08-31T00:29:46;3.20;;;2.40;;
26920;SDS011;14483;47.844;9.660;2023-08-31T00:32:17;4.38;;;2.78;;
26920;SDS011;14483;47.844;9.660;2023-08-31T00:34:43;4.53;;;2.95;;
26920;SDS011;14483;47.844;9.660;2023-08-31T00:37:10;4.60;;;2.70;;
26920;SDS011;14483;47.844;9.660;2023-08-31T00:39:36;5.47;;;2.90;;
26920;SDS011;14483;47.844;9.660;2023-08-31T00:42:02;4.22;;;2.72;;
26920;SDS011;14483;47.844;9.660;2023-08-31T00:44:29;4.20;;;2.88;;
26920;SDS011;14483;47.844;9.660;2023-08-31T00:46:55;4.90;;;3.50;;
26920;SDS011;14483;47.844;9.660;2023-08-31T00:49:23;3.92;;;3.13;;
26920;SDS011;14483;47.844;9.660;2023-08-31T00:51:49;6.18;;;3.60;;
26920;SDS011;14483;47.844;9.660;2023-08-31T00:54:16;5.22;;;3.40;;
26920;SDS011;14483;47.844;9.660;2023-08-31T00:56:42;4.45;;;3.60;;
26920;SDS011;14483;47.844;9.660;2023-08-31T00:59:09;4.88;;;3.63;;
26920;SDS011;14483;47.844;9.660;2023-08-31T01:01:36;5.63;;;3.22;;
26920;SDS011;14483;47.844;9.660;2023-08-31T01:04:08;4.95;;;4.20;;
26920;SDS011;14483;47.844;9.660;2023-08-31T01:06:45;5.47;;;4.00;;
26920;SDS011;14483;47.844;9.660;2023-08-31T01:09:14;5.13;;;3.20;;
26920;SDS011;14483;47.844;9.660;2023-08-31T01:11:45;5.32;;;3.97;;
26920;SDS011;14483;47.844;9.660;2023-08-31T01:14:16;4.45;;;3.42;;
26920;SDS011;14483;47.844;9.660;2023-08-31T01:16:43;4.30;;;3.53;;
26920;SDS011;14483;47.844;9.660;2023-08-31T01:19:12;6.22;;;3.90;;
26920;SDS011;14483;47.844;9.660;2023-08-31T01:21:42;3.80;;;2.90;;
26920;SDS011;14483;47.844;9.660;2023-08-31T01:24:13;4.18;;;3.60;;
26920;SDS011;14483;47.844;9.660;2023-08-31T01:26:40;4.00;;;3.55;;
26920;SDS011;14483;47.844;9.660;2023-08-31T01:29:07;4.82;;;3.53;;
26920;SDS011;14483;47.844;9.660;2023-08-31T01:31:41;5.95;;;3.75;;
26920;SDS011;14483;47.844;9.660;2023-08-31T01:36:34;3.80;;;2.97;;
26920;SDS011;14483;47.844;9.660;2023-08-31T01:39:03;4.25;;;3.20;;
26920;SDS011;14483;47.844;9.660;2023-08-31T01:41:32;5.28;;;3.35;;
26920;SDS011;14483;47.844;9.660;2023-08-31T01:44:00;4.47;;;3.42;;
26920;SDS011;14483;47.844;9.660;2023-08-31T01:46:27;4.18;;;2.97;;
26920;SDS011;14483;47.844;9.660;2023-08-31T01:48:53;4.38;;;3.35;;
26920;SDS011;14483;47.844;9.660;2023-08-31T01:51:20;4.25;;;3.40;;
26920;SDS011;14483;47.844;9.660;2023-08-31T01:53:46;5.28;;;2.78;;
26920;SDS011;14483;47.844;9.660;2023-08-31T01:56:12;4.57;;;3.20;;
26920;SDS011;14483;47.844;9.660;2023-08-31T01:58:41;4.15;;;2.88;;
26920;SDS011;14483;47.844;9.660;2023-08-31T02:01:07;4.00;;;3.05;;
26920;SDS011;14483;47.844;9.660;2023-08-31T02:03:33;4.63;;;3.10;;
26920;SDS011;14483;47.844;9.660;2023-08-31T02:06:00;4.68;;;3.22;;
26920;SDS011;14483;47.844;9.660;2023-08-31T02:08:26;4.40;;;3.22;;
26920;SDS011;14483;47.844;9.660;2023-08-31T02:10:53;4.32;;;3.05;;
26920;SDS011;14483;47.844;9.660;2023-08-31T02:13:19;3.58;;;2.80;;
26920;SDS011;14483;47.844;9.660;2023-08-31T02:15:47;3.65;;;3.03;;
26920;SDS011;14483;47.844;9.660;2023-08-31T02:18:17;4.80;;;3.38;;
26920;SDS011;14483;47.844;9.660;2023-08-31T02:20:43;6.53;;;3.03;;
26920;SDS011;14483;47.844;9.660;2023-08-31T02:23:09;4.82;;;2.70;;
26920;SDS011;14483;47.844;9.660;2023-08-31T02:25:37;3.63;;;2.75;;
26920;SDS011;14483;47.844;9.660;2023-08-31T02:28:04;3.40;;;2.80;;
26920;SDS011;14483;47.844;9.660;2023-08-31T02:30:31;2.90;;;2.00;;
26920;SDS011;14483;47.844;9.660;2023-08-31T02:32:58;4.35;;;2.42;;
26920;SDS011;14483;47.844;9.660;2023-08-31T02:35:25;3.88;;;2.45;;
26920;SDS011;14483;47.844;9.660;2023-08-31T02:37:51;5.45;;;2.50;;
26920;SDS011;14483;47.844;9.660;2023-08-31T02:40:17;5.07;;;1.90;;
26920;SDS011;14483;47.844;9.660;2023-08-31T02:42:46;4.68;;;2.55;;
26920;SDS011;14483;47.844;9.660;2023-08-31T02:45:12;3.85;;;2.33;;
26920;SDS011;14483;47.844;9.660;2023-08-31T02:47:40;3.45;;;2.17;;
26920;SDS011;14483;47.844;9.660;2023-08-31T02:50:08;5.40;;;2.45;;
26920;SDS011;14483;47.844;9.660;2023-08-31T02:52:35;3.90;;;2.20;;
26920;SDS011;14483;47.844;9.660;2023-08-31T02:55:01;5.70;;;2.80;;
26920;SDS011;14483;47.844;9.660;2023-08-31T02:57:27;3.45;;;2.13;;
26920;SDS011;14483;47.844;9.660;2023-08-31T02:59:54;5.05;;;2.25;;
26920;SDS011;14483;47.844;9.660;2023-08-31T03:02:20;5.05;;;2.45;;
26920;SDS011;14483;47.844;9.660;2023-08-31T03:04:47;5.45;;;2.70;;
26920;SDS011;14483;47.844;9.660;2023-08-31T03:07:16;3.80;;;2.13;;
26920;SDS011;14483;47.844;9.660;2023-08-31T03:09:47;4.68;;;2.67;;
26920;SDS011;14483;47.844;9.660;2023-08-31T03:12:14;3.88;;;2.63;;
26920;SDS011;14483;47.844;9.660;2023-08-31T03:14:40;5.25;;;2.13;;
26920;SDS011;14483;47.844;9.660;2023-08-31T03:17:06;3.67;;;2.53;;
26920;SDS011;14483;47.844;9.660;2023-08-31T03:19:33;3.42;;;2.28;;
26920;SDS011;14483;47.844;9.660;2023-08-31T03:21:59;3.45;;;2.25;;
26920;SDS011;14483;47.844;9.660;2023-08-31T03:24:27;3.90;;;2.65;;
26920;SDS011;14483;47.844;9.660;2023-08-31T03:26:53;3.05;;;2.50;;
26920;SDS011;14483;47.844;9.660;2023-08-31T03:29:19;3.33;;;2.15;;
26920;SDS011;14483;47.844;9.660;2023-08-31T03:31:46;3.15;;;2.38;;
26920;SDS011;14483;47.844;9.660;2023-08-31T03:34:12;4.65;;;2.65;;
26920;SDS011;14483;47.844;9.660;2023-08-31T03:36:39;4.10;;;2.92;;
26920;SDS011;14483;47.844;9.660;2023-08-31T03:39:05;4.03;;;2.80;;
26920;SDS011;14483;47.844;9.660;2023-08-31T03:41:33;4.88;;;2.95;;
26920;SDS011;14483;47.844;9.660;2023-08-31T03:44:00;3.10;;;2.35;;
26920;SDS011;14483;47.844;9.660;2023-08-31T03:46:27;6.38;;;3.20;;
26920;SDS011;14483;47.844;9.660;2023-08-31T03:48:53;4.13;;;3.05;;
26920;SDS011;14483;47.844;9.660;2023-08-31T03:51:19;7.07;;;4.13;;
26920;SDS011;14483;47.844;9.660;2023-08-31T03:53:46;4.05;;;3.00;;
26920;SDS011;14483;47.844;9.660;2023-08-31T03:56:12;3.88;;;2.75;;
26920;SDS011;14483;47.844;9.660;2023-08-31T03:58:40;4.20;;;2.80;;
26920;SDS011;14483;47.844;9.660;2023-08-31T04:01:06;3.50;;;2.67;;
26920;SDS011;14483;47.844;9.660;2023-08-31T04:03:35;4.60;;;2.40;;
26920;SDS011;14483;47.844;9.660;2023-08-31T04:06:01;5.78;;;2.80;;
26920;SDS011;14483;47.844;9.660;2023-08-31T04:08:27;7.03;;;2.60;;
26920;SDS011;14483;47.844;9.660;2023-08-31T04:10:54;4.68;;;2.42;;
26920;SDS011;14483;47.844;9.660;2023-08-31T04:13:20;5.55;;;2.40;;
26920;SDS011;14483;47.844;9.660;2023-08-31T04:15:48;3.35;;;2.28;;
26920;SDS011;14483;47.844;9.660;2023-08-31T04:18:14;3.67;;;2.38;;
26920;SDS011;14483;47.844;9.660;2023-08-31T04:20:47;4.35;;;2.35;;
26920;SDS011;14483;47.844;9.660;2023-08-31T04:23:14;6.68;;;2.92;;
26920;SDS011;14483;47.844;9.660;2023-08-31T04:25:40;4.78;;;2.10;;
26920;SDS011;14483;47.844;9.660;2023-08-31T04:28:07;4.07;;;2.50;;
26920;SDS011;14483;47.844;9.660;2023-08-31T04:30:33;5.57;;;2.30;;
26920;SDS011;14483;47.844;9.660;2023-08-31T04:33:01;2.35;;;1.90;;
26920;SDS011;14483;47.844;9.660;2023-08-31T04:35:29;3.35;;;2.10;;
26920;SDS011;14483;47.844;9.660;2023-08-31T04:37:56;6.53;;;2.25;;
26920;SDS011;14483;47.844;9.660;2023-08-31T04:40:22;4.30;;;2.05;;
26920;SDS011;14483;47.844;9.660;2023-08-31T04:42:49;3.65;;;2.13;;
26920;SDS011;14483;47.844;9.660;2023-08-31T04:45:15;4.65;;;2.03;;
26920;SDS011;14483;47.844;9.660;2023-08-31T04:47:42;5.80;;;2.95;;
26920;SDS011;14483;47.844;9.660;2023-08-31T04:50:09;5.88;;;2.00;;
26920;SDS011;14483;47.844;9.660;2023-08-31T04:52:36;3.35;;;2.08;;
26920;SDS011;14483;47.844;9.660;2023-08-31T04:55:02;3.20;;;2.03;;
26920;SDS011;14483;47.844;9.660;2023-08-31T04:57:29;4.80;;;2.17;;
26920;SDS011;14483;47.844;9.660;2023-08-31T04:59:56;2.60;;;1.88;;
26920;SDS011;14483;47.844;9.660;2023-08-31T05:02:22;4.63;;;2.28;;
26920;SDS011;14483;47.844;9.660;2023-08-31T05:04:48;3.42;;;2.25;;
26920;SDS011;14483;47.844;9.660;2023-08-31T05:07:16;5.80;;;2.30;;
26920;SDS011;14483;47.844;9.660;2023-08-31T05:09:42;3.33;;;2.08;;
26920;SDS011;14483;47.844;9.660;2023-08-31T05:12:09;5.72;;;2.30;;
26920;SDS011;14483;47.844;9.660;2023-08-31T05:14:35;4.65;;;2.20;;
26920;SDS011;14483;47.844;9.660;2023-08-31T05:17:04;4.82;;;2.00;;
26920;SDS011;14483;47.844;9.660;2023-08-31T05:19:31;4.97;;;2.10;;
26920;SDS011;14483;47.844;9.660;2023-08-31T05:21:57;5.05;;;2.20;;
26920;SDS011;14483;47.844;9.660;2023-08-31T05:24:25;5.97;;;2.20;;
26920;SDS011;14483;47.844;9.660;2023-08-31T05:26:51;3.20;;;2.17;;
26920;SDS011;14483;47.844;9.660;2023-08-31T05:29:17;3.70;;;1.83;;
26920;SDS011;14483;47.844;9.660;2023-08-31T05:31:44;6.25;;;1.95;;
26920;SDS011;14483;47.844;9.660;2023-08-31T05:34:10;4.10;;;1.75;;
26920;SDS011;14483;47.844;9.660;2023-08-31T05:36:36;4.22;;;1.85;;
26920;SDS011;14483;47.844;9.660;2023-08-31T05:39:03;4.00;;;1.55;;
26920;SDS011;14483;47.844;9.660;2023-08-31T05:41:31;4.53;;;1.80;;
26920;SDS011;14483;47.844;9.660;2023-08-31T05:43:57;4.50;;;1.80;;
26920;SDS011;14483;47.844;9.660;2023-08-31T05:46:23;2.70;;;1.60;;
26920;SDS011;14483;47.844;9.660;2023-08-31T05:48:50;3.05;;;1.75;;
26920;SDS011;14483;47.844;9.660;2023-08-31T05:51:17;3.08;;;1.70;;
26920;SDS011;14483;47.844;9.660;2023-08-31T05:53:43;4.22;;;1.70;;
26920;SDS011;14483;47.844;9.660;2023-08-31T05:56:10;5.70;;;1.60;;
26920;SDS011;14483;47.844;9.660;2023-08-31T05:58:38;3.15;;;1.55;;
26920;SDS011;14483;47.844;9.660;2023-08-31T06:01:04;3.50;;;1.50;;
26920;SDS011;14483;47.844;9.660;2023-08-31T06:03:31;3.25;;;1.27;;
26920;SDS011;14483;47.844;9.660;2023-08-31T06:05:57;3.53;;;1.95;;
26920;SDS011;14483;47.844;9.660;2023-08-31T06:08:24;3.42;;;1.30;;
26920;SDS011;14483;47.844;9.660;2023-08-31T06:10:50;3.72;;;1.70;;
26920;SDS011;14483;47.844;9.660;2023-08-31T06:13:17;2.30;;;1.50;;
26920;SDS011;14483;47.844;9.660;2023-08-31T06:15:44;3.95;;;1.63;;
26920;SDS011;14483;47.844;9.660;2023-08-31T06:18:11;2.25;;;1.20;;
26920;SDS011;14483;47.844;9.660;2023-08-31T06:20:38;3.00;;;1.60;;
26920;SDS011;14483;47.844;9.660;2023-08-31T06:23:04;1.80;;;1.15;;
26920;SDS011;14483;47.844;9.660;2023-08-31T06:25:30;2.55;;;1.38;;
26920;SDS011;14483;47.844;9.660;2023-08-31T06:27:57;5.10;;;1.63;;
26920;SDS011;14483;47.844;9.660;2023-08-31T06:30:23;3.35;;;1.42;;
26920;SDS011;14483;47.844;9.660;2023-08-31T06:32:52;2.47;;;1.48;;
26920;SDS011;14483;47.844;9.660;2023-08-31T06:35:18;4.03;;;1.27;;
26920;SDS011;14483;47.844;9.660;2023-08-31T06:37:44;3.15;;;1.55;;
26920;SDS011;14483;47.844;9.660;2023-08-31T06:40:11;3.13;;;1.70;;
26920;SDS011;14483;47.844;9.660;2023-08-31T06:42:38;2.70;;;1.30;;
26920;SDS011;14483;47.844;9.660;2023-08-31T06:45:05;2.42;;;1.48;;
26920;SDS011;14483;47.844;9.660;2023-08-31T06:47:31;4.60;;;1.50;;
26920;SDS011;14483;47.844;9.660;2023-08-31T06:49:59;2.88;;;1.38;;
26920;SDS011;14483;47.844;9.660;2023-08-31T06:52:26;4.85;;;1.55;;
26920;SDS011;14483;47.844;9.660;2023-08-31T06:54:52;4.60;;;1.73;;
26920;SDS011;14483;47.844;9.660;2023-08-31T06:57:20;3.80;;;1.65;;
26920;SDS011;14483;47.844;9.660;2023-08-31T06:59:46;3.50;;;1.27;;
26920;SDS011;14483;47.844;9.660;2023-08-31T07:02:13;1.90;;;1.08;;
26920;SDS011;14483;47.844;9.660;2023-08-31T07:04:39;3.17;;;1.33;;
26920;SDS011;14483;47.844;9.660;2023-08-31T07:07:07;2.05;;;1.00;;
26920;SDS011;14483;47.844;9.660;2023-08-31T07:09:34;3.83;;;1.50;;
26920;SDS011;14483;47.844;9.660;2023-08-31T07:12:00;2.92;;;1.50;;
26920;SDS011;14483;47.844;9.660;2023-08-31T07:14:27;4.13;;;1.58;;
26920;SDS011;14483;47.844;9.660;2023-08-31T07:16:53;3.03;;;1.67;;
26920;SDS011;14483;47.844;9.660;2023-08-31T07:19:20;3.00;;;1.52;;
26920;SDS011;14483;47.844;9.660;2023-08-31T07:21:46;2.45;;;1.45;;
26920;SDS011;14483;47.844;9.660;2023-08-31T07:24:14;3.58;;;1.42;;
26920;SDS011;14483;47.844;9.660;2023-08-31T07:26:40;3.63;;;1.30;;
26920;SDS011;14483;47.844;9.660;2023-08-31T07:29:06;3.30;;;1.52;;
26920;SDS011;14483;47.844;9.660;2023-08-31T07:31:33;4.25;;;1.52;;
26920;SDS011;14483;47.844;9.660;2023-08-31T07:34:00;2.92;;;1.23;;
26920;SDS011;14483;47.844;9.660;2023-08-31T07:36:26;4.63;;;1.27;;
26920;SDS011;14483;47.844;9.660;2023-08-31T07:38:52;3.22;;;1.45;;
26920;SDS011;14483;47.844;9.660;2023-08-31T07:41:20;3.70;;;1.10;;
26920;SDS011;14483;47.844;9.660;2023-08-31T07:43:47;2.72;;;1.00;;
26920;SDS011;14483;47.844;9.660;2023-08-31T07:46:14;4.05;;;1.17;;
26920;SDS011;14483;47.844;9.660;2023-08-31T07:48:41;5.15;;;1.20;;
26920;SDS011;14483;47.844;9.660;2023-08-31T07:51:07;4.90;;;1.15;;
26920;SDS011;14483;47.844;9.660;2023-08-31T07:53:34;2.53;;;0.88;;
26920;SDS011;14483;47.844;9.660;2023-08-31T07:56:00;4.70;;;1.00;;
26920;SDS011;14483;47.844;9.660;2023-08-31T07:58:28;4.72;;;1.00;;
26920;SDS011;14483;47.844;9.660;2023-08-31T08:00:54;6.38;;;1.00;;
26920;SDS011;14483;47.844;9.660;2023-08-31T08:03:20;2.33;;;0.90;;
26920;SDS011;14483;47.844;9.660;2023-08-31T08:05:47;3.45;;;1.00;;
26920;SDS011;14483;47.844;9.660;2023-08-31T08:08:13;6.43;;;1.00;;
26920;SDS011;14483;47.844;9.660;2023-08-31T08:10:40;3.92;;;1.13;;
26920;SDS011;14483;47.844;9.660;2023-08-31T08:13:08;3.83;;;0.88;;
26920;SDS011;14483;47.844;9.660;2023-08-31T08:15:35;3.03;;;0.77;;
26920;SDS011;14483;47.844;9.660;2023-08-31T08:18:02;3.58;;;0.95;;
26920;SDS011;14483;47.844;9.660;2023-08-31T08:20:28;3.15;;;1.05;;
26920;SDS011;14483;47.844;9.660;2023-08-31T08:22:54;5.45;;;1.65;;
26920;SDS011;14483;47.844;9.660;2023-08-31T08:25:22;1.50;;;0.82;;
26920;SDS011;14483;47.844;9.660;2023-08-31T08:27:49;5.60;;;1.65;;
26920;SDS011;14483;47.844;9.660;2023-08-31T08:30:16;2.47;;;0.88;;
26920;SDS011;14483;47.844;9.660;2023-08-31T08:32:45;3.75;;;1.38;;
26920;SDS011;14483;47.844;9.660;2023-08-31T08:35:11;4.45;;;1.02;;
26920;SDS011;14483;47.844;9.660;2023-08-31T08:37:38;3.80;;;1.10;;
26920;SDS011;14483;47.844;9.660;2023-08-31T08:40:04;3.20;;;1.08;;
26920;SDS011;14483;47.844;9.660;2023-08-31T08:42:31;3.95;;;1.08;;
26920;SDS011;14483;47.844;9.660;2023-08-31T08:44:58;2.53;;;0.80;;
26920;SDS011;14483;47.844;9.660;2023-08-31T08:47:26;2.05;;;0.80;;
26920;SDS011;14483;47.844;9.660;2023-08-31T08:49:54;1.45;;;0.60;;
26920;SDS011;14483;47.844;9.660;2023-08-31T08:52:21;4.65;;;0.90;;
26920;SDS011;14483;47.844;9.660;2023-08-31T08:54:48;6.85;;;1.13;;
26920;SDS011;14483;47.844;9.660;2023-08-31T08:57:15;3.20;;;0.80;;
26920;SDS011;14483;47.844;9.660;2023-08-31T08:59:41;4.13;;;0.90;;
26920;SDS011;14483;47.844;9.660;2023-08-31T09:02:08;1.52;;;0.88;;
26920;SDS011;14483;47.844;9.660;2023-08-31T09:04:34;5.10;;;0.95;;
26920;SDS011;14483;47.844;9.660;2023-08-31T09:07:02;3.15;;;0.60;;
26920;SDS011;14483;47.844;9.660;2023-08-31T09:09:29;1.83;;;0.70;;
26920;SDS011;14483;47.844;9.660;2023-08-31T09:11:55;4.70;;;1.00;;
26920;SDS011;14483;47.844;9.660;2023-08-31T09:14:22;2.40;;;1.00;;
26920;SDS011;14483;47.844;9.660;2023-08-31T09:16:49;4.05;;;1.10;;
26920;SDS011;14483;47.844;9.660;2023-08-31T09:19:19;1.90;;;0.70;;
26920;SDS011;14483;47.844;9.660;2023-08-31T09:21:46;23.48;;;2.53;;
26920;SDS011;14483;47.844;9.660;2023-08-31T09:24:14;2.58;;;0.82;;
26920;SDS011;14483;47.844;9.660;2023-08-31T09:26:43;1.92;;;1.00;;
26920;SDS011;14483;47.844;9.660;2023-08-31T09:29:09;3.55;;;1.08;;
26920;SDS011;14483;47.844;9.660;2023-08-31T09:31:36;1.98;;;0.80;;
26920;SDS011;14483;47.844;9.660;2023-08-31T09:34:02;2.88;;;0.90;;
26920;SDS011;14483;47.844;9.660;2023-08-31T09:36:29;3.80;;;1.02;;
26920;SDS011;14483;47.844;9.660;2023-08-31T09:38:56;2.78;;;1.05;;
26920;SDS011;14483;47.844;9.660;2023-08-31T09:41:24;3.90;;;0.93;;
26920;SDS011;14483;47.844;9.660;2023-08-31T09:43:50;2.08;;;0.98;;
26920;SDS011;14483;47.844;9.660;2023-08-31T09:46:17;3.42;;;0.80;;
26920;SDS011;14483;47.844;9.660;2023-08-31T09:48:43;4.10;;;0.90;;
26920;SDS011;14483;47.844;9.660;2023-08-31T09:51:10;5.18;;;1.00;;
26920;SDS011;14483;47.844;9.660;2023-08-31T09:53:37;9.38;;;1.13;;
26920;SDS011;14483;47.844;9.660;2023-08-31T09:56:04;3.63;;;0.80;;
26920;SDS011;14483;47.844;9.660;2023-08-31T09:58:32;5.57;;;0.93;;
26920;SDS011;14483;47.844;9.660;2023-08-31T10:00:59;1.83;;;0.85;;
26920;SDS011;14483;47.844;9.660;2023-08-31T10:03:25;1.80;;;0.73;;
26920;SDS011;14483;47.844;9.660;2023-08-31T10:05:52;3.50;;;0.90;;
26920;SDS011;14483;47.844;9.660;2023-08-31T10:08:20;7.03;;;1.05;;
26920;SDS011;14483;47.844;9.660;2023-08-31T10:10:46;2.28;;;0.90;;
26920;SDS011;14483;47.844;9.660;2023-08-31T10:13:13;4.00;;;0.70;;
26920;SDS011;14483;47.844;9.660;2023-08-31T10:15:41;2.22;;;1.00;;
26920;SDS011;14483;47.844;9.660;2023-08-31T10:18:09;2.35;;;0.90;;
26920;SDS011;14483;47.844;9.660;2023-08-31T10:20:35;2.35;;;0.90;;
26920;SDS011;14483;47.844;9.660;2023-08-31T10:23:02;15.73;;;1.10;;
26920;SDS011;14483;47.844;9.660;2023-08-31T10:25:41;3.60;;;1.25;;
26920;SDS011;14483;47.844;9.660;2023-08-31T10:28:25;2.85;;;0.93;;
26920;SDS011;14483;47.844;9.660;2023-08-31T10:31:03;2.90;;;1.20;;
26920;SDS011;14483;47.844;9.660;2023-08-31T10:33:33;2.33;;;1.00;;
26920;SDS011;14483;47.844;9.660;2023-08-31T10:36:00;1.42;;;0.60;;
26920;SDS011;14483;47.844;9.660;2023-08-31T10:38:27;3.35;;;0.85;;
26920;SDS011;14483;47.844;9.660;2023-08-31T10:41:16;1.85;;;0.73;;
26920;SDS011;14483;47.844;9.660;2023-08-31T10:43:44;4.07;;;1.10;;
26920;SDS011;14483;47.844;9.660;2023-08-31T10:46:16;6.82;;;1.13;;
26920;SDS011;14483;47.844;9.660;2023-08-31T10:48:49;1.55;;;0.73;;
26920;SDS011;14483;47.844;9.660;2023-08-31T10:51:15;6.10;;;0.90;;
26920;SDS011;14483;47.844;9.660;2023-08-31T10:53:42;2.22;;;0.70;;
26920;SDS011;14483;47.844;9.660;2023-08-31T10:56:08;12.27;;;1.38;;
26920;SDS011;14483;47.844;9.660;2023-08-31T10:58:34;2.08;;;0.80;;
26920;SDS011;14483;47.844;9.660;2023-08-31T11:01:01;2.88;;;1.05;;
26920;SDS011;14483;47.844;9.660;2023-08-31T11:03:30;2.72;;;0.95;;
26920;SDS011;14483;47.844;9.660;2023-08-31T11:05:56;5.45;;;0.73;;
26920;SDS011;14483;47.844;9.660;2023-08-31T11:08:23;5.07;;;1.23;;
26920;SDS011;14483;47.844;9.660;2023-08-31T11:10:49;4.57;;;0.90;;
26920;SDS011;14483;47.844;9.660;2023-08-31T11:13:16;4.38;;;1.27;;
26920;SDS011;14483;47.844;9.660;2023-08-31T11:15:44;2.65;;;0.95;;
26920;SDS011;14483;47.844;9.660;2023-08-31T11:18:11;2.78;;;0.82;;
26920;SDS011;14483;47.844;9.660;2023-08-31T11:20:39;3.75;;;0.93;;
26920;SDS011;14483;47.844;9.660;2023-08-31T11:23:06;2.40;;;0.90;;
26920;SDS011;14483;47.844;9.660;2023-08-31T11:25:32;2.58;;;0.90;;
26920;SDS011;14483;47.844;9.660;2023-08-31T11:28:00;5.15;;;0.80;;
26920;SDS011;14483;47.844;9.660;2023-08-31T11:30:27;2.70;;;1.00;;
26920;SDS011;14483;47.844;9.660;2023-08-31T11:32:54;2.08;;;0.80;;
26920;SDS011;14483;47.844;9.660;2023-08-31T11:35:21;3.15;;;1.10;;
26920;SDS011;14483;47.844;9.660;2023-08-31T11:37:50;4.43;;;1.20;;
26920;SDS011;14483;47.844;9.660;2023-08-31T11:40:17;5.07;;;1.50;;
26920;SDS011;14483;47.844;9.660;2023-08-31T11:42:44;3.20;;;0.95;;
26920;SDS011;14483;47.844;9.660;2023-08-31T11:45:10;2.75;;;1.00;;
26920;SDS011;14483;47.844;9.660;2023-08-31T11:47:37;5.03;;;0.82;;
26920;SDS011;14483;47.844;9.660;2023-08-31T11:50:05;1.90;;;0.77;;
26920;SDS011;14483;47.844;9.660;2023-08-31T11:52:32;2.80;;;0.80;;
26920;SDS011;14483;47.844;9.660;2023-08-31T11:55:00;8.45;;;1.63;;
26920;SDS011;14483;47.844;9.660;2023-08-31T11:57:27;2.47;;;0.75;;
26920;SDS011;14483;47.844;9.660;2023-08-31T11:59:54;2.97;;;1.08;;
26920;SDS011;14483;47.844;9.660;2023-08-31T12:02:21;1.33;;;0.80;;
26920;SDS011;14483;47.844;9.660;2023-08-31T12:04:47;3.30;;;0.80;;
26920;SDS011;14483;47.844;9.660;2023-08-31T12:07:15;3.08;;;0.85;;
26920;SDS011;14483;47.844;9.660;2023-08-31T12:09:42;2.92;;;1.30;;
26920;SDS011;14483;47.844;9.660;2023-08-31T12:12:11;4.88;;;1.13;;
26920;SDS011;14483;47.844;9.660;2023-08-31T12:14:39;2.50;;;0.95;;
26920;SDS011;14483;47.844;9.660;2023-08-31T12:17:06;3.50;;;0.95;;
26920;SDS011;14483;47.844;9.660;2023-08-31T12:19:33;3.45;;;0.90;;
26920;SDS011;14483;47.844;9.660;2023-08-31T12:21:59;3.45;;;1.10;;
26920;SDS011;14483;47.844;9.660;2023-08-31T12:24:26;5.20;;;1.13;;
26920;SDS011;14483;47.844;9.660;2023-08-31T12:26:52;4.07;;;0.98;;
26920;SDS011;14483;47.844;9.660;2023-08-31T12:29:21;3.40;;;1.08;;
26920;SDS011;14483;47.844;9.660;2023-08-31T12:31:48;3.45;;;1.35;;
26920;SDS011;14483;47.844;9.660;2023-08-31T12:34:14;2.72;;;1.00;;
26920;SDS011;14483;47.844;9.660;2023-08-31T12:36:41;1.20;;;0.70;;
26920;SDS011;14483;47.844;9.660;2023-08-31T12:39:07;2.58;;;1.17;;
26920;SDS011;14483;47.844;9.660;2023-08-31T12:41:35;4.57;;;1.05;;
26920;SDS011;14483;47.844;9.660;2023-08-31T12:44:01;2.88;;;1.10;;
26920;SDS011;14483;47.844;9.660;2023-08-31T12:46:29;4.47;;;0.80;;
26920;SDS011;14483;47.844;9.660;2023-08-31T12:48:56;2.45;;;0.90;;
26920;SDS011;14483;47.844;9.660;2023-08-31T12:51:22;3.90;;;0.95;;
26920;SDS011;14483;47.844;9.660;2023-08-31T12:53:48;2.45;;;0.70;;
26920;SDS011;14483;47.844;9.660;2023-08-31T12:56:15;4.38;;;0.85;;
26920;SDS011;14483;47.844;9.660;2023-08-31T12:58:46;2.63;;;1.02;;
26920;SDS011;14483;47.844;9.660;2023-08-31T13:01:13;3.38;;;0.82;;
26920;SDS011;14483;47.844;9.660;2023-08-31T13:03:40;6.43;;;1.35;;
26920;SDS011;14483;47.844;9.660;2023-08-31T13:06:07;5.68;;;1.65;;
26920;SDS011;14483;47.844;9.660;2023-08-31T13:08:33;1.95;;;0.88;;
26920;SDS011;14483;47.844;9.660;2023-08-31T13:11:00;7.40;;;0.80;;
26920;SDS011;14483;47.844;9.660;2023-08-31T13:13:27;3.00;;;0.70;;
26920;SDS011;14483;47.844;9.660;2023-08-31T13:15:53;5.93;;;1.13;;
26920;SDS011;14483;47.844;9.660;2023-08-31T13:18:20;6.95;;;1.17;;
26920;SDS011;14483;47.844;9.660;2023-08-31T13:20:51;3.00;;;0.70;;
26920;SDS011;14483;47.844;9.660;2023-08-31T13:23:17;7.25;;;1.25;;
26920;SDS011;14483;47.844;9.660;2023-08-31T13:25:43;3.38;;;0.90;;
26920;SDS011;14483;47.844;9.660;2023-08-31T13:28:10;3.20;;;0.90;;
26920;SDS011;14483;47.844;9.660;2023-08-31T13:30:36;2.63;;;0.95;;
26920;SDS011;14483;47.844;9.660;2023-08-31T13:33:03;2.08;;;0.80;;
26920;SDS011;14483;47.844;9.660;2023-08-31T13:35:30;2.63;;;0.95;;
26920;SDS011;14483;47.844;9.660;2023-08-31T13:37:57;2.92;;;0.60;;
26920;SDS011;14483;47.844;9.660;2023-08-31T13:40:24;2.75;;;0.75;;
26920;SDS011;14483;47.844;9.660;2023-08-31T13:42:52;6.97;;;0.98;;
26920;SDS011;14483;47.844;9.660;2023-08-31T13:45:19;2.50;;;0.60;;
26920;SDS011;14483;47.844;9.660;2023-08-31T13:47:45;3.10;;;1.17;;
26920;SDS011;14483;47.844;9.660;2023-08-31T13:50:14;4.55;;;0.98;;
26920;SDS011;14483;47.844;9.660;2023-08-31T13:52:40;6.05;;;1.27;;
26920;SDS011;14483;47.844;9.660;2023-08-31T13:55:08;4.40;;;0.88;;
26920;SDS011;14483;47.844;9.660;2023-08-31T13:57:35;14.70;;;1.83;;
26920;SDS011;14483;47.844;9.660;2023-08-31T14:00:01;2.83;;;0.90;;
26920;SDS011;14483;47.844;9.660;2023-08-31T14:02:29;2.05;;;0.75;;
26920;SDS011;14483;47.844;9.660;2023-08-31T14:04:56;1.90;;;0.98;;
26920;SDS011;14483;47.844;9.660;2023-08-31T14:07:22;3.70;;;1.25;;
26920;SDS011;14483;47.844;9.660;2023-08-31T14:09:48;2.90;;;0.80;;
26920;SDS011;14483;47.844;9.660;2023-08-31T14:12:17;4.22;;;0.85;;
26920;SDS011;14483;47.844;9.660;2023-08-31T14:14:44;3.50;;;1.00;;
26920;SDS011;14483;47.844;9.660;2023-08-31T14:17:11;2.75;;;1.00;;
26920;SDS011;14483;47.844;9.660;2023-08-31T14:19:37;5.57;;;1.48;;
26920;SDS011;14483;47.844;9.660;2023-08-31T14:22:04;3.53;;;1.00;;
26920;SDS011;14483;47.844;9.660;2023-08-31T14:24:31;2.45;;;1.20;;
26920;SDS011;14483;47.844;9.660;2023-08-31T14:26:57;1.52;;;0.88;;
26920;SDS011;14483;47.844;9.660;2023-08-31T14:29:25;1.92;;;0.90;;
26920;SDS011;14483;47.844;9.660;2023-08-31T14:31:51;3.00;;;1.10;;
26920;SDS011;14483;47.844;9.660;2023-08-31T14:34:19;3.42;;;0.82;;
26920;SDS011;14483;47.844;9.660;2023-08-31T14:36:45;2.70;;;1.02;;
26920;SDS011;14483;47.844;9.660;2023-08-31T14:39:12;4.53;;;1.10;;
26920;SDS011;14483;47.844;9.660;2023-08-31T14:41:39;5.40;;;1.25;;
26920;SDS011;14483;47.844;9.660;2023-08-31T14:44:06;4.28;;;1.35;;
26920;SDS011;14483;47.844;9.660;2023-08-31T14:46:34;2.13;;;0.98;;
26920;SDS011;14483;47.844;9.660;2023-08-31T14:49:00;5.05;;;1.00;;